Time;durP1;ratioP1;P1;durP2;ratioP2;P2;SDS_P1;SDS_P2;PMS_P1;PMS_P2;Temp;Humidity;BMP_temperature;BMP_pressure;BME280_temperature;BME280_humidity;BME280_pressure;Samples;Min_cycle;Max_cycle;Signal;HPM_P1;HPM_P2
2022/03/19 00:02:06;;;;;;;;;;;7.40;99.90;;;;;;4943298;28;20610;-81
2022/03/19 00:04:32;;;;;;;;;;;7.40;99.90;;;;;;4947347;28;19934;-81
2022/03/19 00:07:01;;;;;;;;;;;7.40;99.90;;;;;;4946440;28;20009;-80
2022/03/19 00:09:28;;;;;;;;;;;7.40;99.90;;;;;;4940767;28;19970;-81
2022/03/19 00:11:55;;;;;;;;;;;7.30;99.90;;;;;;4947045;28;19989;-81
2022/03/19 00:14:22;;;;;;;;;;;7.30;99.90;;;;;;4946218;28;20325;-81
2022/03/19 00:16:49;;;;;;;;;;;7.30;99.90;;;;;;4947341;28;20013;-81
2022/03/19 00:19:16;;;;;;;;;;;7.30;99.90;;;;;;4947342;28;19931;-80
2022/03/19 00:21:43;;;;;;;;;;;7.30;99.90;;;;;;4949907;28;19933;-80
2022/03/19 00:24:11;;;;;;;;;;;7.30;99.90;;;;;;4943806;28;19930;-80
2022/03/19 00:26:38;;;;;;;;;;;7.20;99.90;;;;;;4944638;28;19942;-80
2022/03/19 00:29:06;;;;;;;;;;;7.20;99.90;;;;;;4948569;28;19945;-80
2022/03/19 00:31:32;;;;;;;;;;;7.20;99.90;;;;;;4948998;28;19926;-80
2022/03/19 00:33:59;;;;;;;;;;;7.20;99.90;;;;;;4947713;28;19927;-80
2022/03/19 00:36:27;;;;;;;;;;;7.20;99.90;;;;;;4940150;28;20407;-80
2022/03/19 00:38:54;;;;;;;;;;;7.20;99.90;;;;;;4936400;28;19937;-80
2022/03/19 00:41:23;;;;;;;;;;;7.10;99.90;;;;;;4948824;28;20289;-80
2022/03/19 00:43:50;;;;;;;;;;;7.10;99.90;;;;;;4947855;28;19938;-80
2022/03/19 00:46:19;;;;;;;;;;;7.10;99.90;;;;;;4942167;28;20312;-81
2022/03/19 00:48:45;;;;;;;;;;;7.10;99.90;;;;;;4945945;28;19982;-80
2022/03/19 00:51:12;;;;;;;;;;;7.10;99.90;;;;;;4946559;28;19926;-80
2022/03/19 00:53:39;;;;;;;;;;;7.00;99.90;;;;;;4940365;28;20389;-80
2022/03/19 00:56:06;;;;;;;;;;;7.00;99.90;;;;;;4941461;28;20010;-81
2022/03/19 00:58:34;;;;;;;;;;;7.00;99.90;;;;;;4945018;28;19927;-79
2022/03/19 01:01:01;;;;;;;;;;;7.00;99.90;;;;;;4943668;28;20251;-82
2022/03/19 01:03:28;;;;;;;;;;;7.00;99.90;;;;;;4941292;28;19927;-81
2022/03/19 01:05:56;;;;;;;;;;;7.00;99.90;;;;;;4948000;28;19969;-81
2022/03/19 01:08:24;;;;;;;;;;;7.00;99.90;;;;;;4941444;28;20393;-80
2022/03/19 01:10:51;;;;;;;;;;;6.90;99.90;;;;;;4941306;28;19933;-80
2022/03/19 01:13:18;;;;;;;;;;;6.90;99.90;;;;;;4945189;28;20308;-82
2022/03/19 01:15:46;;;;;;;;;;;6.90;99.90;;;;;;4948097;28;19931;-80
2022/03/19 01:18:13;;;;;;;;;;;6.90;99.90;;;;;;4944123;28;19938;-80
2022/03/19 01:20:41;;;;;;;;;;;6.80;99.90;;;;;;4942697;28;19927;-81
2022/03/19 01:23:09;;;;;;;;;;;6.80;99.90;;;;;;4942899;28;19926;-80
2022/03/19 01:25:35;;;;;;;;;;;6.80;99.90;;;;;;4942183;28;20348;-80
2022/03/19 01:28:02;;;;;;;;;;;6.80;99.90;;;;;;4944455;28;19931;-79
2022/03/19 01:30:29;;;;;;;;;;;6.80;99.90;;;;;;4944199;28;19927;-80
2022/03/19 01:32:59;;;;;;;;;;;6.80;99.90;;;;;;5061045;23;20289;-78
2022/03/19 01:35:25;;;;;;;;;;;6.80;99.90;;;;;;4992393;28;19937;-78
2022/03/19 01:37:55;;;;;;;;;;;6.80;99.90;;;;;;4990477;28;19945;-78
2022/03/19 01:40:22;;;;;;;;;;;6.70;99.90;;;;;;5008343;28;19941;-78
2022/03/19 01:42:49;;;;;;;;;;;6.70;99.90;;;;;;5008616;28;20226;-79
2022/03/19 01:45:17;;;;;;;;;;;6.70;99.90;;;;;;4988715;28;19925;-78
2022/03/19 01:47:44;;;;;;;;;;;6.70;99.90;;;;;;5007834;28;19941;-78
2022/03/19 01:50:13;;;;;;;;;;;6.60;99.90;;;;;;4992088;28;19937;-78
2022/03/19 01:52:40;;;;;;;;;;;6.60;99.90;;;;;;5007262;28;19968;-78
2022/03/19 01:55:07;;;;;;;;;;;6.60;99.90;;;;;;5007427;28;19925;-78
2022/03/19 01:57:37;;;;;;;;;;;6.60;99.90;;;;;;4989836;28;20277;-79
2022/03/19 02:00:07;;;;;;;;;;;6.60;99.90;;;;;;5007666;28;20442;-78
2022/03/19 02:02:39;;;;;;;;;;;6.60;99.90;;;;;;5006042;28;19960;-79
2022/03/19 02:05:07;;;;;;;;;;;6.50;99.90;;;;;;5005410;28;19933;-78
2022/03/19 02:07:35;;;;;;;;;;;6.50;99.90;;;;;;5005854;28;19933;-78
2022/03/19 02:10:02;;;;;;;;;;;6.50;99.90;;;;;;5003418;28;19929;-79
2022/03/19 02:12:29;;;;;;;;;;;6.50;99.90;;;;;;4990313;28;19929;-79
2022/03/19 02:14:57;;;;;;;;;;;6.50;99.90;;;;;;4993326;28;20307;-78
2022/03/19 02:17:24;;;;;;;;;;;6.50;99.90;;;;;;5008424;28;19930;-78
2022/03/19 02:19:52;;;;;;;;;;;6.40;99.90;;;;;;5007868;28;20004;-77
2022/03/19 02:22:20;;;;;;;;;;;6.40;99.90;;;;;;5008315;28;20299;-78
2022/03/19 02:27:33;;;;;;;;;;;6.40;99.90;;;;;;5003446;28;19934;-78
2022/03/19 02:30:00;;;;;;;;;;;6.40;99.90;;;;;;5006293;28;19933;-78
2022/03/19 02:32:28;;;;;;;;;;;6.30;99.90;;;;;;4990506;28;19932;-78
2022/03/19 02:34:55;;;;;;;;;;;6.30;99.90;;;;;;4989845;28;19997;-78
2022/03/19 02:37:22;;;;;;;;;;;6.30;99.90;;;;;;4986811;28;19939;-78
2022/03/19 02:39:50;;;;;;;;;;;6.30;99.90;;;;;;4987478;28;19979;-79
2022/03/19 02:42:18;;;;;;;;;;;6.30;99.90;;;;;;5007364;28;20506;-79
2022/03/19 02:44:46;;;;;;;;;;;6.30;99.90;;;;;;5006264;28;19948;-78
2022/03/19 02:47:13;;;;;;;;;;;6.20;99.90;;;;;;4989224;28;19991;-79
2022/03/19 02:49:40;;;;;;;;;;;6.20;99.90;;;;;;4988550;28;19930;-79
2022/03/19 02:52:07;;;;;;;;;;;6.20;99.90;;;;;;4993515;28;19926;-77
2022/03/19 02:54:34;;;;;;;;;;;6.20;99.90;;;;;;4986831;28;20401;-78
2022/03/19 02:57:03;;;;;;;;;;;6.20;99.90;;;;;;5010350;28;19930;-78
2022/03/19 02:59:30;;;;;;;;;;;6.20;99.90;;;;;;5004275;28;19941;-78
2022/03/19 03:01:58;;;;;;;;;;;6.20;99.90;;;;;;5002470;28;19925;-79
2022/03/19 03:04:25;;;;;;;;;;;6.10;99.90;;;;;;5005648;28;20300;-78
2022/03/19 03:06:52;;;;;;;;;;;6.10;99.90;;;;;;5010054;28;19931;-78
2022/03/19 03:09:20;;;;;;;;;;;6.10;99.90;;;;;;4986667;28;20304;-78
2022/03/19 03:11:47;;;;;;;;;;;6.10;99.90;;;;;;5005185;28;19925;-78
2022/03/19 03:14:16;;;;;;;;;;;6.00;99.90;;;;;;4986298;28;20076;-78
2022/03/19 03:16:43;;;;;;;;;;;6.00;99.90;;;;;;4992430;28;19980;-78
2022/03/19 03:19:11;;;;;;;;;;;6.00;99.90;;;;;;4986944;28;19937;-79
2022/03/19 03:21:39;;;;;;;;;;;6.00;99.90;;;;;;5006855;28;20339;-79
2022/03/19 03:24:08;;;;;;;;;;;6.00;99.90;;;;;;5010321;28;19948;-78
2022/03/19 03:26:35;;;;;;;;;;;6.00;99.90;;;;;;4998964;28;19937;-79
2022/03/19 03:29:02;;;;;;;;;;;6.00;99.90;;;;;;4994801;28;19940;-78
2022/03/19 03:31:30;;;;;;;;;;;6.00;99.90;;;;;;5012085;28;20356;-78
2022/03/19 03:33:57;;;;;;;;;;;5.90;99.90;;;;;;4994344;28;19972;-78
2022/03/19 03:36:24;;;;;;;;;;;5.90;99.90;;;;;;4987805;28;19933;-78
2022/03/19 03:38:51;;;;;;;;;;;5.90;99.90;;;;;;4990467;28;20425;-78
2022/03/19 03:41:18;;;;;;;;;;;5.90;99.90;;;;;;4993622;28;20368;-79
2022/03/19 03:43:45;;;;;;;;;;;5.80;99.90;;;;;;4992920;28;19959;-79
2022/03/19 03:46:12;;;;;;;;;;;5.90;99.90;;;;;;5010876;28;19932;-78
2022/03/19 03:48:40;;;;;;;;;;;5.80;99.90;;;;;;4986761;28;19933;-79
2022/03/19 03:51:08;;;;;;;;;;;5.80;99.90;;;;;;5014839;28;19925;-78
2022/03/19 03:53:36;;;;;;;;;;;5.80;99.90;;;;;;5011318;28;20016;-78
2022/03/19 03:56:03;;;;;;;;;;;5.80;99.90;;;;;;5008120;28;19933;-78
2022/03/19 03:58:30;;;;;;;;;;;5.80;99.90;;;;;;5030929;28;19933;-78
2022/03/19 04:00:57;;;;;;;;;;;5.70;99.90;;;;;;5028973;28;19909;-77
2022/03/19 04:03:25;;;;;;;;;;;5.70;99.90;;;;;;4994965;28;20012;-79
2022/03/19 04:05:53;;;;;;;;;;;5.70;99.90;;;;;;4992660;28;19933;-79
2022/03/19 04:08:20;;;;;;;;;;;5.70;99.90;;;;;;5011481;28;20387;-78
2022/03/19 04:10:47;;;;;;;;;;;5.70;99.90;;;;;;5010001;28;19926;-78
2022/03/19 04:13:14;;;;;;;;;;;5.70;99.90;;;;;;4984153;28;19952;-78
2022/03/19 04:15:41;;;;;;;;;;;5.60;99.90;;;;;;5007133;28;19944;-78
2022/03/19 04:18:08;;;;;;;;;;;5.60;99.90;;;;;;4991860;28;19949;-78
2022/03/19 04:20:35;;;;;;;;;;;5.60;99.90;;;;;;5005869;28;20443;-79
2022/03/19 04:23:03;;;;;;;;;;;5.60;99.90;;;;;;5010896;28;19952;-78
2022/03/19 04:25:30;;;;;;;;;;;5.60;99.90;;;;;;4991850;28;19930;-78
2022/03/19 04:27:57;;;;;;;;;;;5.60;99.90;;;;;;5008601;28;19933;-78
2022/03/19 04:30:26;;;;;;;;;;;5.60;99.90;;;;;;5008705;28;19935;-78
2022/03/19 04:32:54;;;;;;;;;;;5.50;99.90;;;;;;5009709;28;19988;-78
2022/03/19 04:38:08;;;;;;;;;;;5.50;99.90;;;;;;5005538;28;20414;-79
2022/03/19 04:40:35;;;;;;;;;;;5.50;99.90;;;;;;5008287;28;19964;-78
2022/03/19 04:43:02;;;;;;;;;;;5.50;99.90;;;;;;5009641;28;20303;-79
2022/03/19 04:45:29;;;;;;;;;;;5.50;99.90;;;;;;5010775;28;19926;-78
2022/03/19 04:47:57;;;;;;;;;;;5.40;99.90;;;;;;5009151;28;20040;-78
2022/03/19 04:50:24;;;;;;;;;;;5.40;99.90;;;;;;5009173;28;19925;-79
2022/03/19 04:52:52;;;;;;;;;;;5.40;99.90;;;;;;4992932;28;19937;-78
2022/03/19 04:55:20;;;;;;;;;;;5.40;99.90;;;;;;5009016;28;19979;-78
2022/03/19 04:57:47;;;;;;;;;;;5.40;99.90;;;;;;5047435;23;19926;-78
2022/03/19 05:00:17;;;;;;;;;;;5.30;99.90;;;;;;4951273;28;20476;-78
2022/03/19 05:02:44;;;;;;;;;;;5.30;99.90;;;;;;4951978;28;19930;-78
2022/03/19 05:05:12;;;;;;;;;;;5.30;99.90;;;;;;4951892;28;19982;-80
2022/03/19 05:07:39;;;;;;;;;;;5.30;99.90;;;;;;4951286;28;20042;-78
2022/03/19 05:13:02;;;;;;;;;;;5.30;99.90;;;;;;4940728;28;20030;-78
2022/03/19 05:15:30;;;;;;;;;;;5.30;99.90;;;;;;4963005;28;19930;-78
2022/03/19 05:17:57;;;;;;;;;;;5.20;99.90;;;;;;4950751;28;19933;-78
2022/03/19 05:20:24;;;;;;;;;;;5.20;99.90;;;;;;4967322;28;19976;-78
2022/03/19 05:22:51;;;;;;;;;;;5.20;99.90;;;;;;4955174;28;19930;-78
2022/03/19 05:25:17;;;;;;;;;;;5.20;99.90;;;;;;4963521;28;20772;-78
2022/03/19 05:27:45;;;;;;;;;;;5.20;99.90;;;;;;4961309;28;19926;-78
2022/03/19 05:30:13;;;;;;;;;;;5.10;99.90;;;;;;4951883;28;20617;-79
2022/03/19 05:32:41;;;;;;;;;;;5.10;99.90;;;;;;4965354;28;20353;-78
2022/03/19 05:35:08;;;;;;;;;;;5.10;99.90;;;;;;4948482;28;19930;-78
2022/03/19 05:37:35;;;;;;;;;;;5.10;99.90;;;;;;4951367;28;19927;-78
2022/03/19 05:40:04;;;;;;;;;;;5.10;99.90;;;;;;4951020;28;19935;-78
2022/03/19 05:42:32;;;;;;;;;;;5.00;99.90;;;;;;4944280;28;19934;-78
2022/03/19 05:44:58;;;;;;;;;;;5.00;99.90;;;;;;4963713;28;19989;-77
2022/03/19 05:47:27;;;;;;;;;;;5.00;99.90;;;;;;4950494;28;19993;-78
2022/03/19 05:49:54;;;;;;;;;;;5.00;99.90;;;;;;4946560;28;19950;-78
2022/03/19 05:52:21;;;;;;;;;;;5.00;99.90;;;;;;4959948;28;20427;-78
2022/03/19 05:54:48;;;;;;;;;;;5.00;99.90;;;;;;4960744;28;19993;-78
2022/03/19 05:57:15;;;;;;;;;;;5.00;99.90;;;;;;4954286;28;19933;-78
2022/03/19 05:59:42;;;;;;;;;;;5.00;99.90;;;;;;4938428;28;19934;-78
2022/03/19 06:02:09;;;;;;;;;;;4.90;99.90;;;;;;4955194;28;19934;-78
2022/03/19 06:04:38;;;;;;;;;;;4.90;99.90;;;;;;4944395;28;20420;-78
2022/03/19 06:07:04;;;;;;;;;;;4.90;99.90;;;;;;4959896;28;19926;-77
2022/03/19 06:09:31;;;;;;;;;;;4.90;99.90;;;;;;4956674;28;19953;-78
2022/03/19 06:11:58;;;;;;;;;;;4.90;99.90;;;;;;4951512;28;19930;-77
2022/03/19 06:14:25;;;;;;;;;;;4.90;99.90;;;;;;4946209;28;19949;-78
2022/03/19 06:16:52;;;;;;;;;;;4.80;99.90;;;;;;4948381;28;19965;-77
2022/03/19 06:19:20;;;;;;;;;;;4.80;99.90;;;;;;4947777;28;19931;-77
2022/03/19 06:21:48;;;;;;;;;;;4.80;99.90;;;;;;4942498;28;19926;-78
2022/03/19 06:24:15;;;;;;;;;;;4.80;99.90;;;;;;4940721;28;20205;-78
2022/03/19 06:26:42;;;;;;;;;;;4.80;99.90;;;;;;4956594;28;20025;-78
2022/03/19 06:29:09;;;;;;;;;;;4.80;99.90;;;;;;4944505;28;20421;-77
2022/03/19 06:31:36;;;;;;;;;;;4.80;99.90;;;;;;4957643;28;20045;-78
2022/03/19 06:34:04;;;;;;;;;;;4.80;99.90;;;;;;4956256;28;19942;-79
2022/03/19 06:39:17;;;;;;;;;;;4.80;99.90;;;;;;4950074;28;19992;-78
2022/03/19 06:41:43;;;;;;;;;;;4.70;99.90;;;;;;4942973;28;19930;-78
2022/03/19 06:44:11;;;;;;;;;;;4.80;99.90;;;;;;4954844;28;20460;-78
2022/03/19 06:46:38;;;;;;;;;;;4.70;99.90;;;;;;4948731;28;20408;-78
2022/03/19 06:49:05;;;;;;;;;;;4.70;99.90;;;;;;4954871;28;19934;-78
2022/03/19 06:51:32;;;;;;;;;;;4.70;99.90;;;;;;4943204;28;19945;-78
2022/03/19 06:53:59;;;;;;;;;;;4.70;99.90;;;;;;4948518;28;19926;-79
2022/03/19 06:56:27;;;;;;;;;;;4.80;99.90;;;;;;4963957;28;19957;-78
2022/03/19 06:58:54;;;;;;;;;;;4.70;99.90;;;;;;4967133;28;19926;-78
2022/03/19 07:01:21;;;;;;;;;;;4.70;99.90;;;;;;4950442;28;19935;-78
2022/03/19 07:03:48;;;;;;;;;;;4.70;99.90;;;;;;4948057;28;20336;-79
2022/03/19 07:06:16;;;;;;;;;;;4.70;99.90;;;;;;4966328;28;20010;-77
2022/03/19 07:08:45;;;;;;;;;;;4.70;99.90;;;;;;4948318;28;19927;-77
2022/03/19 07:11:12;;;;;;;;;;;4.70;99.90;;;;;;4958935;28;19935;-78
2022/03/19 07:13:41;;;;;;;;;;;4.70;99.90;;;;;;4949413;28;19965;-77
2022/03/19 07:16:08;;;;;;;;;;;4.60;99.90;;;;;;4952083;28;19927;-79
2022/03/19 07:18:35;;;;;;;;;;;4.60;99.90;;;;;;4971444;28;19939;-79
2022/03/19 07:21:02;;;;;;;;;;;4.60;99.90;;;;;;4948846;28;20340;-78
2022/03/19 07:23:29;;;;;;;;;;;4.60;99.90;;;;;;4968303;28;19935;-78
2022/03/19 07:25:59;;;;;;;;;;;4.70;99.90;;;;;;4965770;28;20301;-78
2022/03/19 07:28:26;;;;;;;;;;;4.60;99.90;;;;;;4947219;28;21785;-78
2022/03/19 07:30:55;;;;;;;;;;;4.60;99.90;;;;;;4960794;28;19926;-79
2022/03/19 07:33:22;;;;;;;;;;;4.60;99.90;;;;;;4966251;28;19938;-80
2022/03/19 07:35:49;;;;;;;;;;;4.60;99.90;;;;;;4965766;28;20387;-78
2022/03/19 07:38:16;;;;;;;;;;;4.60;99.90;;;;;;4943137;28;19931;-78
2022/03/19 07:43:28;;;;;;;;;;;4.60;99.90;;;;;;4950150;28;19929;-79
2022/03/19 07:45:58;;;;;;;;;;;4.60;99.90;;;;;;4955514;28;19946;-78
2022/03/19 07:48:25;;;;;;;;;;;4.60;99.90;;;;;;4974196;28;19959;-78
2022/03/19 07:50:52;;;;;;;;;;;4.60;99.90;;;;;;4970026;28;19958;-78
2022/03/19 07:53:19;;;;;;;;;;;4.60;99.90;;;;;;4967459;28;19930;-79
2022/03/19 07:55:46;;;;;;;;;;;4.60;99.90;;;;;;4942057;28;19938;-79
2022/03/19 07:58:13;;;;;;;;;;;4.60;99.90;;;;;;4958768;28;19950;-78
2022/03/19 08:00:40;;;;;;;;;;;4.60;99.90;;;;;;4946523;28;19968;-78
2022/03/19 08:03:08;;;;;;;;;;;4.70;99.90;;;;;;4957678;28;20016;-78
2022/03/19 08:05:35;;;;;;;;;;;4.80;99.90;;;;;;4961777;28;19927;-77
2022/03/19 08:08:05;;;;;;;;;;;4.90;99.90;;;;;;4950576;28;19927;-77
2022/03/19 08:10:33;;;;;;;;;;;4.80;99.90;;;;;;4949625;28;19934;-77
2022/03/19 08:13:03;;;;;;;;;;;4.80;99.90;;;;;;4944219;28;19934;-78
2022/03/19 08:15:30;;;;;;;;;;;4.80;99.90;;;;;;4944849;28;19961;-78
2022/03/19 08:17:58;;;;;;;;;;;4.70;99.90;;;;;;4948651;28;19989;-78
2022/03/19 08:20:27;;;;;;;;;;;4.70;99.90;;;;;;4950420;28;19933;-78
2022/03/19 08:22:54;;;;;;;;;;;4.70;99.90;;;;;;4953149;28;19930;-77
2022/03/19 08:25:21;;;;;;;;;;;4.70;99.90;;;;;;4954919;28;20362;-77
2022/03/19 08:27:50;;;;;;;;;;;4.70;99.90;;;;;;4945527;28;19927;-78
2022/03/19 08:30:17;;;;;;;;;;;4.70;99.90;;;;;;4952879;28;19934;-77
2022/03/19 08:32:44;;;;;;;;;;;4.70;99.90;;;;;;4966472;28;19941;-77
2022/03/19 08:35:11;;;;;;;;;;;4.70;99.90;;;;;;4957426;28;19926;-78
2022/03/19 08:37:39;;;;;;;;;;;4.70;99.90;;;;;;4953687;28;20393;-78
2022/03/19 08:40:15;;;;;;;;;;;4.70;99.90;;;;;;4956687;28;19926;-78
2022/03/19 08:42:43;;;;;;;;;;;4.70;99.90;;;;;;4952983;28;19931;-78
2022/03/19 08:45:10;;;;;;;;;;;4.70;99.90;;;;;;4953832;28;20412;-78
2022/03/19 08:47:37;;;;;;;;;;;4.70;99.90;;;;;;4968713;28;19940;-78
2022/03/19 08:50:04;;;;;;;;;;;4.60;99.90;;;;;;4959280;28;19942;-77
2022/03/19 08:52:31;;;;;;;;;;;4.60;99.90;;;;;;4971133;28;20414;-78
2022/03/19 08:55:00;;;;;;;;;;;4.60;99.90;;;;;;4950380;28;20412;-77
2022/03/19 08:57:27;;;;;;;;;;;4.60;99.90;;;;;;4948761;28;19927;-78
2022/03/19 08:59:54;;;;;;;;;;;4.60;99.90;;;;;;4955807;28;19942;-78
2022/03/19 09:02:22;;;;;;;;;;;4.60;99.90;;;;;;4968259;28;20473;-78
2022/03/19 09:04:49;;;;;;;;;;;4.60;99.90;;;;;;4954114;28;19926;-78
2022/03/19 09:07:16;;;;;;;;;;;4.60;99.90;;;;;;4953082;28;19937;-78
2022/03/19 09:09:43;;;;;;;;;;;4.60;99.90;;;;;;4951462;28;20389;-77
2022/03/19 09:12:11;;;;;;;;;;;4.60;99.90;;;;;;4965667;28;19926;-78
2022/03/19 09:14:38;;;;;;;;;;;4.60;99.90;;;;;;4952772;28;19933;-77
2022/03/19 09:17:05;;;;;;;;;;;4.60;99.90;;;;;;4954449;28;19926;-77
2022/03/19 11:23:55;;;;;;;;;;;5.80;98.30;;;;;;5864567;23;20029;-77
2022/03/19 11:26:23;;;;;;;;;;;6.20;96.20;;;;;;4970563;28;20392;-79
2022/03/19 11:28:50;;;;;;;;;;;6.20;96.50;;;;;;4974235;28;19926;-81
2022/03/19 11:31:22;;;;;;;;;;;6.20;97.10;;;;;;4978404;28;19934;-80
2022/03/19 11:40:23;;;;;;;;;;;6.50;98.10;;;;;;6118350;22;19957;-80
2022/03/19 11:42:56;;;;;;;;;;;6.60;98.30;;;;;;4998383;28;19932;-80
2022/03/19 11:45:23;;;;;;;;;;;6.60;98.20;;;;;;5014452;28;20068;-80
2022/03/19 11:47:51;;;;;;;;;;;6.50;98.30;;;;;;5016180;28;19926;-80
2022/03/19 11:50:19;;;;;;;;;;;6.60;98.40;;;;;;5000822;28;19951;-80
2022/03/19 11:53:28;;;;;;;;;;;6.60;98.40;;;;;;5019885;28;20347;-81
2022/03/19 11:56:52;;;;;;;;;;;6.60;98.30;;;;;;4916503;29;19930;-81
2022/03/19 12:14:41;;;;;;;;;;;6.60;98.80;;;;;;6081022;23;19931;-78
2022/03/19 12:17:17;;;;;;;;;;;6.60;99.00;;;;;;5017467;28;19925;-79
2022/03/19 12:19:49;;;;;;;;;;;6.60;98.80;;;;;;5016259;28;19953;-80
2022/03/19 12:22:25;;;;;;;;;;;6.60;99.00;;;;;;5029576;28;20108;-79
2022/03/19 12:24:54;;;;;;;;;;;6.60;98.90;;;;;;5013395;28;20109;-80
2022/03/19 12:27:23;;;;;;;;;;;6.60;98.90;;;;;;4997703;28;19976;-79
2022/03/19 12:29:51;;;;;;;;;;;6.70;99.10;;;;;;4998052;28;20407;-80
2022/03/19 12:32:22;;;;;;;;;;;6.60;99.10;;;;;;4998998;28;19925;-79
2022/03/19 13:01:51;;;;;;;;;;;6.80;98.60;;;;;;5774161;22;19932;-80
2022/03/19 14:00:57;;;;;;;;;;;7.20;99.30;;;;;;5704930;23;20406;-80
2022/03/19 14:03:25;;;;;;;;;;;7.20;99.00;;;;;;5008909;28;19930;-80
2022/03/19 15:37:50;;;;;;;;;;;7.80;99.20;;;;;;5077467;23;19942;-76
2022/03/19 15:40:17;;;;;;;;;;;7.70;99.00;;;;;;4980417;28;19937;-76
2022/03/19 15:42:44;;;;;;;;;;;7.80;98.60;;;;;;4970887;28;20028;-76
2022/03/19 15:45:12;;;;;;;;;;;7.80;94.40;;;;;;4978592;28;19926;-75
2022/03/19 15:47:39;;;;;;;;;;;7.80;94.10;;;;;;4967012;28;20395;-77
2022/03/19 15:50:07;;;;;;;;;;;7.80;96.40;;;;;;4983036;28;19930;-77
2022/03/19 15:52:34;;;;;;;;;;;7.80;96.80;;;;;;4970338;28;20114;-76
2022/03/19 15:55:03;;;;;;;;;;;7.80;96.60;;;;;;4964396;28;19933;-77
2022/03/19 15:57:30;;;;;;;;;;;7.80;96.70;;;;;;4971040;28;19960;-75
2022/03/19 15:59:56;;;;;;;;;;;7.80;96.90;;;;;;4956599;28;19943;-76
2022/03/19 16:02:23;;;;;;;;;;;7.80;96.60;;;;;;4971039;28;19973;-77
2022/03/19 16:04:50;;;;;;;;;;;7.80;96.50;;;;;;4969288;28;19953;-76
2022/03/19 16:07:17;;;;;;;;;;;7.80;96.70;;;;;;4972810;28;20466;-76
2022/03/19 16:09:44;;;;;;;;;;;7.80;96.50;;;;;;4973913;28;20013;-76
2022/03/19 16:12:14;;;;;;;;;;;7.80;96.80;;;;;;4986286;28;19929;-75
2022/03/19 16:14:41;;;;;;;;;;;7.80;96.50;;;;;;4969998;28;19941;-75
2022/03/19 16:17:08;;;;;;;;;;;7.80;96.80;;;;;;4964085;28;19944;-76
2022/03/19 16:19:35;;;;;;;;;;;7.80;96.90;;;;;;4968892;28;19993;-76
2022/03/19 16:22:02;;;;;;;;;;;7.80;97.20;;;;;;4964208;28;19934;-76
2022/03/19 16:24:30;;;;;;;;;;;7.80;97.10;;;;;;4949865;28;19930;-76
2022/03/19 16:26:57;;;;;;;;;;;7.80;96.80;;;;;;4967158;28;20020;-75
2022/03/19 16:29:26;;;;;;;;;;;7.70;97.30;;;;;;4945974;28;19926;-76
2022/03/19 16:31:52;;;;;;;;;;;7.70;97.50;;;;;;4956209;28;20278;-77
2022/03/19 16:34:20;;;;;;;;;;;7.60;97.40;;;;;;4950002;28;19942;-75
2022/03/19 16:36:50;;;;;;;;;;;7.70;97.40;;;;;;4955904;28;19949;-76
2022/03/19 16:39:17;;;;;;;;;;;7.70;97.70;;;;;;4992030;28;20005;-76
2022/03/19 16:41:44;;;;;;;;;;;7.70;97.50;;;;;;4967159;28;20019;-77
2022/03/19 16:44:11;;;;;;;;;;;7.70;97.80;;;;;;4971400;28;20420;-76
2022/03/19 16:46:39;;;;;;;;;;;7.80;97.80;;;;;;4965926;28;21853;-76
2022/03/19 16:49:06;;;;;;;;;;;7.80;97.70;;;;;;4972565;28;20393;-76
2022/03/19 16:51:33;;;;;;;;;;;7.80;98.00;;;;;;4950470;28;20408;-76
2022/03/19 16:54:00;;;;;;;;;;;7.80;98.00;;;;;;4970172;28;19927;-76
2022/03/19 16:56:27;;;;;;;;;;;7.80;98.10;;;;;;4971802;28;20036;-76
2022/03/19 16:58:54;;;;;;;;;;;7.80;98.10;;;;;;4971872;28;19926;-77
2022/03/19 17:01:21;;;;;;;;;;;7.80;98.10;;;;;;4988071;28;20028;-76
2022/03/19 17:03:49;;;;;;;;;;;7.80;98.10;;;;;;4946522;28;19940;-75
2022/03/19 17:06:16;;;;;;;;;;;7.70;98.20;;;;;;4972556;28;19932;-77
2022/03/19 17:08:43;;;;;;;;;;;7.70;98.50;;;;;;4961446;28;19930;-75
2022/03/19 17:11:10;;;;;;;;;;;7.60;98.60;;;;;;4964130;28;19930;-77
2022/03/19 17:13:37;;;;;;;;;;;7.50;98.80;;;;;;4969641;28;21313;-77
2022/03/19 17:16:05;;;;;;;;;;;7.50;99.00;;;;;;4983747;28;20600;-76
2022/03/19 17:18:32;;;;;;;;;;;7.50;98.80;;;;;;4958337;28;19938;-76
2022/03/19 17:21:00;;;;;;;;;;;7.50;98.90;;;;;;4952670;28;19945;-75
2022/03/19 17:23:27;;;;;;;;;;;7.50;98.90;;;;;;4967955;28;19952;-77
2022/03/19 17:25:53;;;;;;;;;;;7.50;98.80;;;;;;4949845;28;20017;-75
2022/03/19 17:28:20;;;;;;;;;;;7.50;98.70;;;;;;4962915;28;19929;-76
2022/03/19 17:30:47;;;;;;;;;;;7.50;98.90;;;;;;4976419;28;20278;-76
2022/03/19 17:33:14;;;;;;;;;;;7.40;99.00;;;;;;4961956;28;20020;-76
2022/03/19 17:35:41;;;;;;;;;;;7.50;99.10;;;;;;4959537;28;20340;-78
2022/03/19 17:38:09;;;;;;;;;;;7.40;99.00;;;;;;4968439;28;19926;-76
2022/03/19 17:40:37;;;;;;;;;;;7.40;99.10;;;;;;4960034;28;19935;-75
2022/03/19 17:43:04;;;;;;;;;;;7.40;99.30;;;;;;4976027;28;20005;-76
2022/03/19 17:45:31;;;;;;;;;;;7.40;99.20;;;;;;4960744;28;19930;-76
2022/03/19 17:47:57;;;;;;;;;;;7.40;99.20;;;;;;4946280;28;20013;-76
2022/03/19 17:50:24;;;;;;;;;;;7.40;99.20;;;;;;4960083;28;20440;-77
2022/03/19 17:52:51;;;;;;;;;;;7.30;99.20;;;;;;4939745;28;19926;-77
2022/03/19 17:55:20;;;;;;;;;;;7.30;99.20;;;;;;4941225;28;20278;-76
2022/03/19 17:57:49;;;;;;;;;;;7.30;99.30;;;;;;4958766;28;19936;-77
2022/03/19 18:00:17;;;;;;;;;;;7.30;99.30;;;;;;4939836;28;19928;-76
2022/03/19 18:02:44;;;;;;;;;;;7.30;99.30;;;;;;4949446;28;19980;-76
2022/03/19 18:05:12;;;;;;;;;;;7.20;99.30;;;;;;4962934;28;19934;-76
2022/03/19 18:07:39;;;;;;;;;;;7.20;99.30;;;;;;4953154;28;20318;-75
2022/03/19 18:10:07;;;;;;;;;;;7.20;99.30;;;;;;4959612;28;19958;-77
2022/03/19 18:12:36;;;;;;;;;;;7.20;99.20;;;;;;4962773;28;19926;-77
2022/03/19 18:15:03;;;;;;;;;;;7.20;99.40;;;;;;4977503;28;19956;-77
2022/03/19 18:17:31;;;;;;;;;;;7.20;99.40;;;;;;4961591;28;19933;-77
2022/03/19 18:19:58;;;;;;;;;;;7.10;99.40;;;;;;4943398;28;19987;-76
2022/03/19 18:22:25;;;;;;;;;;;7.10;99.40;;;;;;4957361;28;19930;-76
2022/03/19 18:24:52;;;;;;;;;;;7.10;99.40;;;;;;4943621;28;20433;-77
2022/03/19 18:27:19;;;;;;;;;;;7.10;99.50;;;;;;4965242;28;19934;-77
2022/03/19 18:29:47;;;;;;;;;;;7.00;99.40;;;;;;4954979;28;19938;-76
2022/03/19 18:32:19;;;;;;;;;;;7.00;99.40;;;;;;4954365;28;19936;-77
2022/03/19 18:34:46;;;;;;;;;;;7.00;99.40;;;;;;4955808;28;20382;-77
2022/03/19 18:37:13;;;;;;;;;;;6.90;99.30;;;;;;4949587;28;19933;-77
2022/03/19 18:39:41;;;;;;;;;;;6.90;99.40;;;;;;4968836;28;20608;-78
2022/03/19 18:42:08;;;;;;;;;;;6.90;99.40;;;;;;4973193;28;19926;-77
2022/03/19 18:44:35;;;;;;;;;;;6.90;99.80;;;;;;4967118;28;20403;-76
2022/03/19 18:47:03;;;;;;;;;;;6.90;99.50;;;;;;4964729;28;20416;-78
2022/03/19 18:49:30;;;;;;;;;;;6.90;99.50;;;;;;4960720;28;19956;-76
2022/03/19 18:51:58;;;;;;;;;;;6.80;99.40;;;;;;4946514;28;19942;-76
2022/03/19 18:54:24;;;;;;;;;;;6.80;99.40;;;;;;4967558;28;20364;-77
2022/03/19 18:56:52;;;;;;;;;;;6.80;99.50;;;;;;4956664;28;19948;-77
2022/03/19 18:59:18;;;;;;;;;;;6.80;99.50;;;;;;4944095;28;20017;-77
2022/03/19 19:01:46;;;;;;;;;;;6.70;99.50;;;;;;4935099;28;19934;-77
2022/03/19 19:04:14;;;;;;;;;;;6.70;99.50;;;;;;4935629;28;19934;-77
2022/03/19 19:06:41;;;;;;;;;;;6.70;99.50;;;;;;4922936;28;20069;-76
2022/03/19 19:09:10;;;;;;;;;;;6.70;99.50;;;;;;4939169;28;19934;-77
2022/03/19 19:11:38;;;;;;;;;;;6.70;99.50;;;;;;4942201;28;20044;-79
2022/03/19 19:14:05;;;;;;;;;;;6.70;99.50;;;;;;4958957;28;19957;-78
2022/03/19 19:16:32;;;;;;;;;;;6.60;99.40;;;;;;4951906;28;19944;-78
2022/03/19 19:18:59;;;;;;;;;;;6.60;99.50;;;;;;4951861;28;19926;-78
2022/03/19 19:21:27;;;;;;;;;;;6.60;99.60;;;;;;4964655;28;19926;-78
2022/03/19 19:23:54;;;;;;;;;;;6.60;99.60;;;;;;4965923;28;19942;-77
2022/03/19 19:26:22;;;;;;;;;;;6.60;99.40;;;;;;4978849;28;21564;-77
2022/03/19 19:28:49;;;;;;;;;;;6.50;99.30;;;;;;4962987;28;19930;-76
2022/03/19 19:31:16;;;;;;;;;;;6.60;99.50;;;;;;4958733;28;19985;-77
2022/03/19 19:33:43;;;;;;;;;;;6.50;99.40;;;;;;4970915;28;19930;-77
2022/03/19 19:36:11;;;;;;;;;;;6.50;99.40;;;;;;4967993;28;20301;-77
2022/03/19 19:38:39;;;;;;;;;;;6.50;99.40;;;;;;4939490;28;20013;-78
2022/03/19 19:41:06;;;;;;;;;;;6.40;99.40;;;;;;4950767;28;20525;-78
2022/03/19 19:43:34;;;;;;;;;;;6.40;99.50;;;;;;4967051;28;19934;-78
2022/03/19 19:46:01;;;;;;;;;;;6.40;99.30;;;;;;4964593;28;19934;-78
2022/03/19 19:48:27;;;;;;;;;;;6.40;99.30;;;;;;4959069;28;19926;-78
2022/03/19 19:50:54;;;;;;;;;;;6.40;99.30;;;;;;4959915;28;19932;-77
2022/03/19 19:53:21;;;;;;;;;;;6.40;99.50;;;;;;4970643;28;19961;-77
2022/03/19 19:55:50;;;;;;;;;;;6.30;99.40;;;;;;4962866;28;20558;-77
2022/03/19 19:58:17;;;;;;;;;;;6.30;99.30;;;;;;4963868;28;19934;-78
2022/03/19 20:00:44;;;;;;;;;;;6.30;99.30;;;;;;4967886;28;19932;-77
2022/03/19 20:03:12;;;;;;;;;;;6.30;99.30;;;;;;4955842;28;19933;-78
2022/03/19 20:05:43;;;;;;;;;;;6.30;99.40;;;;;;4966386;28;20032;-78
2022/03/19 20:08:10;;;;;;;;;;;6.20;99.20;;;;;;4974687;28;19953;-77
2022/03/19 20:10:37;;;;;;;;;;;6.20;99.30;;;;;;4965356;28;20683;-76